createdAt,value
2022-11-16T00:01:54.455Z,21.29
2022-11-16T00:04:30.121Z,21.25
2022-11-16T00:07:02.877Z,21.24
2022-11-16T00:09:39.733Z,21.22
2022-11-16T00:12:24.792Z,21.23
2022-11-16T00:15:07.844Z,21.23
2022-11-16T00:17:41.486Z,21.24
2022-11-16T00:20:20.441Z,21.26
2022-11-16T00:22:50.863Z,21.20
2022-11-16T00:25:26.754Z,21.21
2022-11-16T00:28:00.252Z,21.14
2022-11-16T00:30:46.386Z,21.13
2022-11-16T00:33:21.305Z,21.15
2022-11-16T00:35:56.360Z,21.11
2022-11-16T00:38:29.236Z,21.11
2022-11-16T00:41:01.947Z,21.11
2022-11-16T00:43:35.761Z,21.16
2022-11-16T00:46:13.690Z,21.19
2022-11-16T00:48:46.684Z,21.24
2022-11-16T00:51:24.849Z,21.18
2022-11-16T00:54:07.345Z,21.12
2022-11-16T00:56:46.947Z,21.09
2022-11-16T00:59:28.947Z,21.10
2022-11-16T01:02:01.874Z,21.09
2022-11-16T01:04:40.754Z,21.06
2022-11-16T01:07:13.408Z,21.06
2022-11-16T01:09:45.051Z,21.09
2022-11-16T01:12:26.238Z,21.13
2022-11-16T01:14:54.064Z,21.18
2022-11-16T01:17:34.367Z,21.16
2022-11-16T01:20:08.434Z,21.25
2022-11-16T01:22:44.416Z,21.24
2022-11-16T01:25:18.885Z,21.20
2022-11-16T01:27:54.229Z,21.20
2022-11-16T01:30:34.863Z,21.20
2022-11-16T01:33:23.667Z,21.15
2022-11-16T01:36:03.024Z,21.13
2022-11-16T01:38:43.900Z,21.15
2022-11-16T01:41:20.087Z,21.16
2022-11-16T01:44:27.857Z,21.15
2022-11-16T01:47:14.543Z,21.15
2022-11-16T01:50:03.758Z,21.15
2022-11-16T01:52:45.567Z,21.18
2022-11-16T01:55:22.848Z,21.17
2022-11-16T01:58:21.944Z,21.16
2022-11-16T02:00:59.766Z,21.12
2022-11-16T02:03:44.954Z,21.10
2022-11-16T02:06:28.900Z,21.12
2022-11-16T02:09:55.841Z,21.15
2022-11-16T02:12:42.975Z,21.24
2022-11-16T02:15:28.806Z,21.35
2022-11-16T02:18:35.873Z,21.37
2022-11-16T02:21:36.936Z,21.35
2022-11-16T02:24:35.017Z,21.36
2022-11-16T02:27:37.840Z,21.39
2022-11-16T02:30:11.033Z,21.49
2022-11-16T02:33:10.441Z,21.51
2022-11-16T02:36:14.152Z,21.58
2022-11-16T02:39:02.016Z,21.67
2022-11-16T02:41:42.712Z,21.67
2022-11-16T02:44:55.075Z,21.60
2022-11-16T02:47:31.852Z,21.62
2022-11-16T02:50:15.404Z,21.62
2022-11-16T02:52:48.160Z,21.60
2022-11-16T02:55:29.021Z,21.78
2022-11-16T02:58:09.843Z,21.91
2022-11-16T03:01:00.030Z,22.02
2022-11-16T03:03:41.709Z,22.02
2022-11-16T03:06:24.467Z,21.92
2022-11-16T03:09:12.004Z,22.03
2022-11-16T03:12:01.886Z,21.95
2022-11-16T03:15:04.613Z,22.05
2022-11-16T03:17:50.306Z,22.06
2022-11-16T03:20:30.221Z,22.00
2022-11-16T03:23:14.189Z,21.81
2022-11-16T03:25:56.046Z,21.60
2022-11-16T03:28:51.956Z,21.56
2022-11-16T03:31:31.173Z,21.49
2022-11-16T03:34:06.997Z,21.43
2022-11-16T03:36:46.218Z,21.38
2022-11-16T03:39:26.240Z,21.35
2022-11-16T03:42:14.017Z,21.29
2022-11-16T03:44:53.698Z,21.28
2022-11-16T03:47:25.975Z,21.28
2022-11-16T03:50:08.058Z,21.22
2022-11-16T03:52:44.110Z,21.24
2022-11-16T03:55:25.024Z,21.24
2022-11-16T03:57:59.172Z,21.24
2022-11-16T04:00:36.024Z,21.24
2022-11-16T04:03:12.878Z,21.19
2022-11-16T04:06:04.517Z,21.16
2022-11-16T04:08:55.953Z,21.13
2022-11-16T04:11:45.344Z,21.15
2022-11-16T04:14:35.882Z,21.14
2022-11-16T04:17:29.249Z,21.14
2022-11-16T04:20:24.825Z,21.14
2022-11-16T04:23:24.782Z,21.07
2022-11-16T04:26:01.055Z,21.03
2022-11-16T04:28:43.313Z,21.02
2022-11-16T04:31:35.245Z,21.00
2022-11-16T04:34:31.499Z,20.98
2022-11-16T04:37:24.615Z,21.05
2022-11-16T04:40:08.880Z,21.05
2022-11-16T04:42:43.109Z,21.08
2022-11-16T04:45:38.914Z,21.09
2022-11-16T04:48:10.398Z,21.04
2022-11-16T04:50:42.277Z,20.99
2022-11-16T04:53:17.399Z,20.98
2022-11-16T04:56:02.242Z,20.95
2022-11-16T04:58:39.124Z,20.95
2022-11-16T05:01:07.460Z,20.97
2022-11-16T05:03:58.579Z,20.98
2022-11-16T05:06:31.827Z,21.02
2022-11-16T05:09:09.255Z,21.05
2022-11-16T05:11:48.972Z,21.07
2022-11-16T05:14:21.470Z,21.08
2022-11-16T05:16:57.700Z,21.08
2022-11-16T05:19:46.631Z,21.00
2022-11-16T05:22:20.371Z,21.00
2022-11-16T05:24:57.973Z,20.99
2022-11-16T05:27:35.224Z,21.04
2022-11-16T05:30:12.199Z,21.00
2022-11-16T05:32:48.165Z,21.00
2022-11-16T05:35:28.375Z,20.99
2022-11-16T05:38:03.315Z,21.00
2022-11-16T05:40:48.312Z,21.00
2022-11-16T05:43:28.997Z,21.00
2022-11-16T05:46:11.848Z,20.95
2022-11-16T05:48:45.476Z,20.92
2022-11-16T05:51:22.296Z,20.94
2022-11-16T05:53:56.113Z,20.98
2022-11-16T05:56:33.250Z,21.01
2022-11-16T05:59:17.882Z,20.97
2022-11-16T06:02:16.634Z,21.01
2022-11-16T06:04:52.370Z,20.98
2022-11-16T06:07:30.548Z,20.95
2022-11-16T06:10:19.162Z,20.98
2022-11-16T06:12:55.374Z,20.96
2022-11-16T06:15:34.108Z,20.97
2022-11-16T06:18:11.322Z,20.97
2022-11-16T06:20:51.104Z,21.00
2022-11-16T06:23:38.451Z,21.02
2022-11-16T06:26:11.849Z,21.01
2022-11-16T06:28:48.233Z,20.97
2022-11-16T06:31:24.363Z,20.95
2022-11-16T06:34:05.316Z,20.94
2022-11-16T06:36:47.461Z,20.97
2022-11-16T06:39:23.859Z,20.94
2022-11-16T06:41:59.774Z,20.94
2022-11-16T06:44:36.907Z,21.01
2022-11-16T06:47:17.737Z,21.02
2022-11-16T06:49:47.270Z,21.05
2022-11-16T06:52:20.732Z,21.06
2022-11-16T06:54:51.017Z,21.02
2022-11-16T06:57:18.916Z,21.01
2022-11-16T06:59:56.653Z,21.03
2022-11-16T07:02:30.397Z,21.02
2022-11-16T07:05:09.465Z,21.06
2022-11-16T07:07:48.998Z,21.09
2022-11-16T07:10:21.471Z,21.16
2022-11-16T07:12:57.580Z,21.17
2022-11-16T07:15:25.598Z,21.17
2022-11-16T07:17:55.742Z,21.23
2022-11-16T07:20:27.208Z,21.21
2022-11-16T07:22:58.412Z,21.33
2022-11-16T07:25:27.241Z,21.44
2022-11-16T07:28:00.994Z,21.51
2022-11-16T07:30:29.134Z,21.54
2022-11-16T07:33:07.041Z,21.50
2022-11-16T07:36:18.144Z,21.43
2022-11-16T07:38:49.093Z,21.41
2022-11-16T07:41:24.779Z,21.42
2022-11-16T07:44:21.595Z,21.46
2022-11-16T07:47:05.253Z,21.43
2022-11-16T07:49:39.178Z,21.39
2022-11-16T07:52:29.880Z,21.43
2022-11-16T07:55:12.359Z,21.43
2022-11-16T07:57:50.358Z,21.41
2022-11-16T08:00:25.506Z,21.49
2022-11-16T08:03:09.292Z,21.62
2022-11-16T08:05:40.641Z,21.71
2022-11-16T08:08:14.842Z,21.64
2022-11-16T08:10:43.563Z,21.60
2022-11-16T08:13:17.600Z,21.59
2022-11-16T08:15:51.144Z,21.63
2022-11-16T08:18:22.589Z,21.64
2022-11-16T08:20:54.400Z,21.61
2022-11-16T08:23:26.385Z,21.59
2022-11-16T08:26:02.614Z,21.60
2022-11-16T08:28:37.364Z,21.59
2022-11-16T08:31:20.716Z,21.60
2022-11-16T08:33:56.979Z,21.63
2022-11-16T08:36:31.019Z,21.68
2022-11-16T08:39:07.375Z,21.66
2022-11-16T08:41:38.837Z,21.66
2022-11-16T08:44:16.668Z,21.70
2022-11-16T08:46:49.256Z,21.77
2022-11-16T08:49:49.369Z,21.75
2022-11-16T08:52:31.057Z,21.76
2022-11-16T08:55:18.693Z,21.74
2022-11-16T08:57:54.158Z,21.77
2022-11-16T09:00:29.114Z,21.77
2022-11-16T09:03:05.049Z,21.81
2022-11-16T09:05:39.000Z,21.83
2022-11-16T09:08:12.111Z,21.84
2022-11-16T09:10:41.284Z,21.78
2022-11-16T09:13:12.198Z,21.72
2022-11-16T09:15:49.183Z,21.73
2022-11-16T09:18:23.031Z,21.73
2022-11-16T09:20:54.495Z,21.70
2022-11-16T09:23:29.140Z,21.76
2022-11-16T09:26:08.239Z,21.79
2022-11-16T09:28:39.215Z,21.79
2022-11-16T09:31:16.553Z,21.79
2022-11-16T09:33:51.432Z,21.80
2022-11-16T09:36:20.928Z,21.85
2022-11-16T09:39:25.950Z,21.81
2022-11-16T09:42:08.508Z,21.84
2022-11-16T09:45:04.965Z,21.79
2022-11-16T09:47:49.493Z,21.83
2022-11-16T09:50:39.562Z,21.85
2022-11-16T09:53:34.253Z,21.86
2022-11-16T09:56:20.646Z,21.93
2022-11-16T09:59:00.598Z,21.91
2022-11-16T10:01:44.469Z,21.95
2022-11-16T10:04:26.766Z,21.95
2022-11-16T10:07:04.543Z,21.99
2022-11-16T10:09:38.524Z,22.04
2022-11-16T10:12:23.175Z,22.11
2022-11-16T10:15:13.346Z,22.21
2022-11-16T10:18:00.091Z,22.39
2022-11-16T10:20:50.565Z,22.77
2022-11-16T10:23:41.800Z,23.00
2022-11-16T10:26:23.641Z,23.36
2022-11-16T10:29:15.598Z,23.96
2022-11-16T10:31:52.852Z,24.05
2022-11-16T10:34:31.685Z,23.76
2022-11-16T10:37:08.600Z,23.50
2022-11-16T10:39:47.979Z,23.29
2022-11-16T10:42:36.707Z,23.11
2022-11-16T10:45:35.358Z,23.08
2022-11-16T10:48:37.646Z,23.43
2022-11-16T10:51:10.861Z,23.37
2022-11-16T10:53:44.394Z,23.56
2022-11-16T10:56:32.772Z,23.64
2022-11-16T10:59:04.217Z,23.40
2022-11-16T11:01:47.986Z,23.45
2022-11-16T11:04:24.900Z,23.84
2022-11-16T11:06:55.543Z,24.33
2022-11-16T11:09:30.002Z,24.62
2022-11-16T11:12:42.338Z,24.09
2022-11-16T11:15:27.289Z,23.61
2022-11-16T11:18:19.882Z,23.40
2022-11-16T11:21:19.613Z,23.42
2022-11-16T11:24:06.147Z,23.60
2022-11-16T11:27:01.870Z,23.68
2022-11-16T11:29:42.012Z,23.80
2022-11-16T11:32:34.087Z,24.80
2022-11-16T11:35:32.619Z,25.68
2022-11-16T11:38:08.546Z,25.54
2022-11-16T11:41:02.583Z,25.21
2022-11-16T11:43:37.809Z,24.70
2022-11-16T11:46:08.860Z,24.22
2022-11-16T11:48:58.788Z,23.97
2022-11-16T11:51:40.767Z,23.52
2022-11-16T11:54:23.648Z,23.26
2022-11-16T11:56:57.387Z,22.99
2022-11-16T11:59:36.644Z,22.99
2022-11-16T12:02:17.228Z,22.93
2022-11-16T12:05:16.702Z,22.77
2022-11-16T12:08:06.279Z,22.65
2022-11-16T12:10:52.836Z,22.65
2022-11-16T12:13:39.852Z,22.62
2022-11-16T12:16:26.880Z,22.59
2022-11-16T12:19:24.569Z,22.62
2022-11-16T12:22:03.171Z,22.57
2022-11-16T12:24:57.348Z,22.54
2022-11-16T12:27:36.662Z,22.59
2022-11-16T12:30:19.491Z,22.59
2022-11-16T12:33:13.735Z,22.58
2022-11-16T12:35:41.665Z,22.53
2022-11-16T12:38:54.190Z,22.49
2022-11-16T12:41:46.964Z,22.49
2022-11-16T12:44:35.600Z,22.48
2022-11-16T12:47:32.671Z,22.47
2022-11-16T12:50:28.819Z,22.45
2022-11-16T12:53:12.553Z,22.44
2022-11-16T12:56:16.007Z,22.40
2022-11-16T12:59:16.379Z,22.04
2022-11-16T13:02:15.694Z,21.73
2022-11-16T13:05:21.874Z,21.75
2022-11-16T13:08:00.583Z,21.89
2022-11-16T13:10:43.133Z,22.13
2022-11-16T13:13:39.363Z,22.22
2022-11-16T13:16:10.428Z,22.36
2022-11-16T13:18:45.519Z,22.40
2022-11-16T13:21:41.961Z,22.40
2022-11-16T13:24:29.297Z,22.43
2022-11-16T13:27:19.087Z,22.54
2022-11-16T13:30:05.292Z,22.67
2022-11-16T13:33:02.453Z,22.73
2022-11-16T13:35:37.184Z,22.89
2022-11-16T13:38:12.645Z,22.95
2022-11-16T13:40:42.562Z,23.14
2022-11-16T13:43:14.403Z,23.37
2022-11-16T13:46:00.789Z,23.69
2022-11-16T13:48:35.740Z,23.85
2022-11-16T13:51:08.101Z,23.69
2022-11-16T13:56:54.268Z,23.20
2022-11-16T13:59:38.975Z,23.07
2022-11-16T14:02:46.833Z,23.01
2022-11-16T14:05:41.037Z,22.88
2022-11-16T14:08:21.125Z,22.79
2022-11-16T14:10:53.480Z,22.71
2022-11-16T14:13:44.546Z,22.74
2022-11-16T14:16:21.944Z,22.70
2022-11-16T14:19:00.713Z,22.72
2022-11-16T14:22:03.403Z,22.62
2022-11-16T14:24:37.013Z,22.66
2022-11-16T14:27:26.424Z,22.60
2022-11-16T14:30:10.099Z,22.63
2022-11-16T14:32:52.576Z,22.59
2022-11-16T14:35:31.602Z,22.57
2022-11-16T14:38:07.722Z,22.50
2022-11-16T14:41:22.483Z,22.56
2022-11-16T14:44:00.437Z,22.50
2022-11-16T14:46:42.717Z,22.56
2022-11-16T14:49:20.720Z,22.58
2022-11-16T14:52:02.347Z,22.59
2022-11-16T14:54:34.938Z,22.53
2022-11-16T14:57:07.064Z,22.50
2022-11-16T14:59:40.146Z,22.51
2022-11-16T15:02:37.594Z,22.47
2022-11-16T15:05:18.252Z,22.45
2022-11-16T15:07:52.081Z,22.45
2022-11-16T15:10:29.663Z,22.47
2022-11-16T15:13:02.662Z,22.46
2022-11-16T15:15:32.304Z,22.44
2022-11-16T15:18:03.866Z,22.41
2022-11-16T15:20:38.594Z,22.50
2022-11-16T15:23:17.216Z,22.53
2022-11-16T15:26:02.559Z,22.57
2022-11-16T15:28:37.698Z,22.59
2022-11-16T15:31:17.155Z,22.61
2022-11-16T15:33:47.096Z,22.67
2022-11-16T15:36:41.409Z,22.73
2022-11-16T15:39:26.725Z,22.79
2022-11-16T15:42:03.282Z,22.87
2022-11-16T15:44:33.628Z,22.89
2022-11-16T15:47:12.037Z,23.10
2022-11-16T15:49:44.691Z,23.39
2022-11-16T15:52:13.739Z,23.56
2022-11-16T15:55:03.845Z,24.06
2022-11-16T15:57:35.807Z,26.14
2022-11-16T16:00:25.233Z,29.44
2022-11-16T16:03:18.489Z,31.42
2022-11-16T16:05:53.294Z,29.50
2022-11-16T16:08:35.796Z,27.78
2022-11-16T16:11:33.916Z,26.77
2022-11-16T16:14:07.806Z,26.05
2022-11-16T16:16:39.808Z,25.96
2022-11-16T16:19:36.949Z,26.25
2022-11-16T16:22:16.017Z,26.25
2022-11-16T16:24:59.302Z,26.35
2022-11-16T16:27:54.619Z,25.96
2022-11-16T16:31:04.540Z,24.95
2022-11-16T16:33:40.289Z,24.17
2022-11-16T16:36:20.652Z,23.63
2022-11-16T16:38:55.076Z,23.45
2022-11-16T16:41:24.753Z,23.31
2022-11-16T16:43:57.684Z,23.47
2022-11-16T16:46:31.816Z,23.34
2022-11-16T16:49:03.652Z,23.37
2022-11-16T16:51:32.044Z,23.11
2022-11-16T16:54:13.311Z,23.10
2022-11-16T16:56:47.051Z,23.06
2022-11-16T16:59:18.558Z,23.04
2022-11-16T17:01:52.820Z,23.00
2022-11-16T17:04:27.656Z,23.00
2022-11-16T17:06:58.909Z,22.92
2022-11-16T17:09:30.351Z,22.99
2022-11-16T17:11:58.733Z,23.15
2022-11-16T17:14:37.011Z,23.30
2022-11-16T17:17:13.822Z,23.21
2022-11-16T17:19:47.845Z,23.21
2022-11-16T17:22:19.683Z,23.03
2022-11-16T17:24:49.610Z,22.99
2022-11-16T17:27:27.216Z,23.04
2022-11-16T17:29:55.880Z,22.96
2022-11-16T17:32:30.242Z,22.96
2022-11-16T17:35:02.547Z,22.92
2022-11-16T17:37:34.360Z,22.80
2022-11-16T17:40:02.965Z,22.79
2022-11-16T17:42:35.831Z,22.74
2022-11-16T17:45:10.286Z,22.63
2022-11-16T17:47:39.393Z,22.57
2022-11-16T17:50:14.043Z,22.49
2022-11-16T17:52:45.908Z,22.47
2022-11-16T17:55:19.479Z,22.42
2022-11-16T17:57:48.806Z,22.43
2022-11-16T18:00:22.520Z,22.41
2022-11-16T18:02:56.241Z,22.38
2022-11-16T18:05:25.308Z,22.35
2022-11-16T18:07:58.048Z,22.25
2022-11-16T18:10:29.261Z,22.20
2022-11-16T18:12:59.475Z,22.20
2022-11-16T18:15:28.978Z,22.16
2022-11-16T18:18:04.244Z,22.08
2022-11-16T18:20:40.278Z,22.11
2022-11-16T18:23:08.437Z,22.08
2022-11-16T18:25:37.151Z,22.08
2022-11-16T18:28:08.315Z,22.07
2022-11-16T18:30:40.377Z,22.02
2022-11-16T18:33:08.975Z,21.99
2022-11-16T18:35:37.119Z,21.95
2022-11-16T18:38:13.104Z,21.95
2022-11-16T18:40:47.149Z,21.96
2022-11-16T18:43:18.295Z,21.92
2022-11-16T18:45:52.006Z,21.91
2022-11-16T18:48:19.637Z,21.90
2022-11-16T18:50:47.868Z,21.82
2022-11-16T18:53:21.475Z,21.81
2022-11-16T18:55:58.261Z,21.82
2022-11-16T19:01:26.631Z,21.86
2022-11-16T19:04:01.810Z,21.80
2022-11-16T19:06:37.960Z,21.80
2022-11-16T19:09:10.423Z,21.80
2022-11-16T19:11:38.502Z,21.81
2022-11-16T19:14:09.620Z,21.78
2022-11-16T19:16:41.885Z,21.78
2022-11-16T19:19:15.738Z,21.78
2022-11-16T19:21:49.623Z,21.76
2022-11-16T19:24:23.222Z,21.78
2022-11-16T19:26:52.247Z,21.77
2022-11-16T19:29:21.640Z,21.78
2022-11-16T19:31:55.273Z,21.75
2022-11-16T19:34:33.188Z,21.75
2022-11-16T19:37:06.683Z,21.74
2022-11-16T19:39:37.771Z,21.72
2022-11-16T19:42:06.127Z,21.71
2022-11-16T19:44:38.682Z,21.69
2022-11-16T19:47:07.545Z,21.71
2022-11-16T19:49:38.574Z,21.67
2022-11-16T19:52:12.865Z,21.64
2022-11-16T19:54:43.789Z,21.68
2022-11-16T19:57:15.861Z,21.66
2022-11-16T19:59:49.216Z,21.64
2022-11-16T20:02:19.650Z,21.64
2022-11-16T20:04:53.612Z,21.62
2022-11-16T20:07:24.722Z,21.63
2022-11-16T20:09:55.348Z,21.62
2022-11-16T20:12:25.716Z,21.65
2022-11-16T20:14:56.194Z,21.59
2022-11-16T20:17:27.547Z,21.60
2022-11-16T20:19:59.343Z,21.52
2022-11-16T20:22:34.216Z,21.49
2022-11-16T20:25:05.265Z,21.50
2022-11-16T20:27:35.921Z,21.51
2022-11-16T20:30:10.178Z,21.51
2022-11-16T20:32:41.597Z,21.48
2022-11-16T20:35:16.181Z,21.47
2022-11-16T20:37:51.506Z,21.52
2022-11-16T20:40:24.782Z,21.55
2022-11-16T20:43:02.189Z,21.57
2022-11-16T20:45:35.144Z,21.53
2022-11-16T20:48:08.302Z,21.50
2022-11-16T20:50:37.489Z,21.45
2022-11-16T20:53:08.521Z,21.46
2022-11-16T20:55:39.320Z,21.41
2022-11-16T20:58:09.674Z,21.41
2022-11-16T21:00:40.897Z,21.45
2022-11-16T21:03:09.280Z,21.41
2022-11-16T21:05:53.301Z,21.43
2022-11-16T21:08:26.881Z,21.41
2022-11-16T21:10:54.705Z,21.41
2022-11-16T21:13:46.220Z,21.42
2022-11-16T21:16:16.707Z,21.46
2022-11-16T21:18:50.180Z,21.47
2022-11-16T21:21:25.579Z,21.49
2022-11-16T21:23:56.577Z,21.49
2022-11-16T21:26:36.804Z,21.44
2022-11-16T21:29:09.949Z,21.45
2022-11-16T21:31:40.903Z,21.46
2022-11-16T21:34:08.877Z,21.49
2022-11-16T21:36:42.523Z,21.50
2022-11-16T21:39:13.647Z,21.51
2022-11-16T21:41:44.146Z,21.48
2022-11-16T21:44:15.078Z,21.52
2022-11-16T21:46:46.095Z,21.44
2022-11-16T21:49:19.761Z,21.48
2022-11-16T21:51:50.216Z,21.53
2022-11-16T21:54:43.580Z,21.52
2022-11-16T21:57:15.874Z,21.53
2022-11-16T21:59:47.026Z,21.50
2022-11-16T22:02:18.036Z,21.46
2022-11-16T22:05:09.290Z,21.47
2022-11-16T22:07:40.472Z,21.53
2022-11-16T22:10:13.762Z,21.47
2022-11-16T22:12:45.776Z,21.55
2022-11-16T22:15:19.628Z,21.63
2022-11-16T22:17:59.215Z,21.72
2022-11-16T22:20:30.967Z,21.78
2022-11-16T22:23:01.542Z,21.81
2022-11-16T22:25:39.771Z,21.90
2022-11-16T22:28:25.208Z,21.97
2022-11-16T22:31:06.886Z,22.06
2022-11-16T22:33:38.868Z,22.08
2022-11-16T22:36:16.470Z,22.22
2022-11-16T22:38:50.862Z,22.43
2022-11-16T22:41:21.712Z,22.50
2022-11-16T22:43:55.551Z,22.46
2022-11-16T22:46:25.427Z,22.52
2022-11-16T22:48:58.301Z,22.62
2022-11-16T22:51:39.190Z,22.55
2022-11-16T22:54:15.511Z,22.39
2022-11-16T22:56:43.963Z,22.16
2022-11-16T22:59:16.040Z,21.82
2022-11-16T23:01:47.552Z,21.70
2022-11-16T23:04:20.994Z,21.60
2022-11-16T23:06:51.970Z,21.60
2022-11-16T23:09:20.123Z,21.59
2022-11-16T23:12:09.052Z,21.60
2022-11-16T23:15:03.195Z,21.54
2022-11-16T23:17:40.078Z,21.46
2022-11-16T23:20:30.646Z,21.40
2022-11-16T23:23:22.603Z,21.38
2022-11-16T23:26:09.290Z,21.42
2022-11-16T23:28:49.370Z,21.41
2022-11-16T23:31:18.869Z,21.39
2022-11-16T23:33:57.785Z,21.43
2022-11-16T23:36:28.968Z,21.44
2022-11-16T23:39:08.462Z,21.42
2022-11-16T23:41:55.682Z,21.47
2022-11-16T23:44:29.249Z,21.47
2022-11-16T23:46:57.871Z,21.42
2022-11-16T23:49:31.257Z,21.44
2022-11-16T23:52:03.662Z,21.38
2022-11-16T23:54:34.439Z,21.40
2022-11-16T23:57:03.715Z,21.35
